Time;durP1;ratioP1;P1;durP2;ratioP2;P2;SDS_P1;SDS_P2;PMS_P1;PMS_P2;Temp;Humidity;BMP_temperature;BMP_pressure;BME280_temperature;BME280_humidity;BME280_pressure;Samples;Min_cycle;Max_cycle;Signal;HPM_P1;HPM_P2
2021/12/03 11:07:08;;;;;;;15.10;8.18;;;;;;;;;;5029742;28;20026;-76
2021/12/03 11:33:54;;;;;;;6.57;2.72;;;;;;;;;;5109615;28;20483;-76
2021/12/03 11:47:32;;;;;;;5.40;3.70;;;;;;;;;;5113076;28;20530;-74
2021/12/03 13:05:23;;;;;;;58.15;28.48;;;;;;;;;;5017414;28;20041;-75
2021/12/03 13:15:45;;;;;;;4.68;1.90;;;;;;;;;;5096425;28;20028;-76
2021/12/03 13:24:11;;;;;;;2.67;1.42;;;;;;;;;;5068608;28;20055;-75
2021/12/03 13:36:10;;;;;;;12.13;4.22;;;;;;;;;;5068397;28;20123;-76
2021/12/03 14:42:23;;;;;;;226.52;92.53;;;;;;;;;;4991878;28;20092;-75
2021/12/03 14:44:58;;;;;;;551.60;252.80;;;;;;;;;;4977384;28;20545;-75
2021/12/03 14:55:06;;;;;;;5.32;2.40;;;;;;;;;;4979664;28;20058;-76
2021/12/03 14:57:40;;;;;;;73.72;38.72;;;;;;;;;;4975427;28;20478;-76
2021/12/03 15:08:26;;;;;;;52.75;33.63;;;;;;;;;;4976347;28;20038;-76
2021/12/03 15:32:10;;;;;;;6.60;2.30;;;;;;;;;;4946737;28;20027;-75
2021/12/03 15:34:46;;;;;;;7.43;2.30;;;;;;;;;;4946706;28;20491;-75
2021/12/03 16:09:14;;;;;;;10.43;2.53;;;;;;;;;;5060656;28;20040;-74
2021/12/03 16:15:07;;;;;;;6.88;2.75;;;;;;;;;;5046279;28;20039;-74
2021/12/03 16:47:01;;;;;;;10.10;3.88;;;;;;;;;;4964020;28;20033;-74
2021/12/03 16:52:33;;;;;;;10.75;5.25;;;;;;;;;;4957353;28;20101;-74
2021/12/03 16:55:00;;;;;;;11.38;5.47;;;;;;;;;;4956626;28;20621;-73
2021/12/03 16:57:33;;;;;;;7.57;3.67;;;;;;;;;;4953022;28;20513;-75
2021/12/03 17:00:12;;;;;;;6.05;2.92;;;;;;;;;;4948780;28;20526;-75
2021/12/03 17:02:48;;;;;;;7.93;3.15;;;;;;;;;;4950947;28;20066;-75
2021/12/03 17:11:28;;;;;;;7.72;2.65;;;;;;;;;;4950689;28;20031;-76
2021/12/03 17:56:25;;;;;;;9.93;4.63;;;;;;;;;;5051383;28;20389;-71
2021/12/03 17:59:10;;;;;;;11.48;4.72;;;;;;;;;;5050977;28;20078;-71
2021/12/03 18:04:36;;;;;;;12.95;6.53;;;;;;;;;;5054639;28;20125;-71
2021/12/03 18:07:10;;;;;;;19.02;7.45;;;;;;;;;;5057568;28;20492;-71
2021/12/03 18:09:48;;;;;;;21.20;9.40;;;;;;;;;;5052520;28;20467;-71
2021/12/03 18:55:31;;;;;;;21.67;11.23;;;;;;;;;;5086151;28;20028;-75
2021/12/03 18:58:04;;;;;;;18.10;9.75;;;;;;;;;;5093851;28;20356;-73
2021/12/03 19:00:32;;;;;;;16.55;8.55;;;;;;;;;;5093397;28;20027;-74
2021/12/03 19:03:02;;;;;;;7.55;3.70;;;;;;;;;;5096471;28;20042;-73
2021/12/03 19:05:38;;;;;;;7.93;3.83;;;;;;;;;;5093525;28;20041;-75
2021/12/03 19:10:33;;;;;;;6.97;3.63;;;;;;;;;;5093979;28;20024;-73
2021/12/03 19:13:04;;;;;;;11.80;5.88;;;;;;;;;;5098748;28;20501;-72
2021/12/03 19:15:31;;;;;;;9.35;4.07;;;;;;;;;;5092244;28;20036;-73
2021/12/03 19:18:01;;;;;;;9.30;4.35;;;;;;;;;;5095153;28;20049;-72
2021/12/03 19:20:32;;;;;;;10.10;5.10;;;;;;;;;;5098212;28;20059;-71
2021/12/03 19:22:58;;;;;;;47.38;31.45;;;;;;;;;;5094785;28;20115;-75
2021/12/03 19:25:24;;;;;;;12.77;7.43;;;;;;;;;;5096065;28;20032;-72
2021/12/03 19:27:51;;;;;;;10.52;5.40;;;;;;;;;;5097479;28;20020;-73
2021/12/03 19:30:17;;;;;;;9.10;6.28;;;;;;;;;;5095246;28;20547;-72
2021/12/03 19:32:44;;;;;;;13.30;7.13;;;;;;;;;;5094427;28;20034;-72
2021/12/03 19:35:10;;;;;;;24.83;16.55;;;;;;;;;;5094476;28;20028;-74
2021/12/03 19:37:36;;;;;;;30.90;19.05;;;;;;;;;;5088252;28;20025;-72
2021/12/03 19:40:06;;;;;;;56.78;39.10;;;;;;;;;;5094395;28;20024;-73
2021/12/03 19:42:35;;;;;;;17.92;12.05;;;;;;;;;;5089979;28;20049;-72
2021/12/03 19:45:07;;;;;;;33.75;24.40;;;;;;;;;;5079671;28;20515;-72
2021/12/03 19:47:53;;;;;;;24.88;17.90;;;;;;;;;;5085207;28;20018;-73
2021/12/03 19:53:09;;;;;;;16.67;10.35;;;;;;;;;;5088588;28;20028;-73
2021/12/03 19:55:40;;;;;;;36.35;20.75;;;;;;;;;;5089914;28;20039;-73
2021/12/03 19:58:07;;;;;;;44.05;27.83;;;;;;;;;;5088803;28;20036;-72
2021/12/03 20:00:33;;;;;;;47.47;30.33;;;;;;;;;;5080451;28;20032;-75
2021/12/03 20:03:00;;;;;;;17.65;10.55;;;;;;;;;;5091153;28;20063;-74
2021/12/03 20:05:26;;;;;;;21.75;13.57;;;;;;;;;;5092631;28;20058;-77
2021/12/03 20:07:54;;;;;;;14.77;9.40;;;;;;;;;;5088771;28;20070;-72
2021/12/03 20:10:23;;;;;;;8.90;5.75;;;;;;;;;;5086896;28;20036;-72
2021/12/03 20:12:50;;;;;;;15.00;10.10;;;;;;;;;;5095438;28;20031;-71
2021/12/03 20:18:53;;;;;;;8.93;6.40;;;;;;;;;;5017218;28;20038;-72
2021/12/03 20:20:58;;;;;;;11.30;7.55;;;;;;;;;;4958483;28;20045;-70
2021/12/03 20:23:45;;;;;;;12.40;8.23;;;;;;;;;;4960548;28;20046;-74
2021/12/03 20:26:29;;;;;;;15.52;8.93;;;;;;;;;;4953660;28;20039;-77
2021/12/03 20:29:06;;;;;;;12.95;7.05;;;;;;;;;;4953503;28;20039;-78
2021/12/03 20:31:36;;;;;;;9.07;5.25;;;;;;;;;;4949487;28;20034;-76
2021/12/03 20:34:22;;;;;;;;;;;;;;;;;;4951167;28;20038;-72
2021/12/03 20:36:55;;;;;;;8.38;3.85;;;;;;;;;;4954860;28;19999;-72
2021/12/03 20:39:32;;;;;;;6.63;4.43;;;;;;;;;;4952359;28;20031;-71
2021/12/03 20:42:06;;;;;;;8.68;4.20;;;;;;;;;;4953209;28;20130;-71
2021/12/03 20:47:48;;;;;;;8.55;3.58;;;;;;;;;;4956750;28;20422;-77
2021/12/03 21:08:57;;;;;;;4.18;2.67;;;;;;;;;;5030318;28;20104;-67
2021/12/03 21:11:07;;;;;;;5.30;2.53;;;;;;;;;;5021270;28;20075;-69
2021/12/03 21:13:38;;;;;;;6.53;2.65;;;;;;;;;;5033254;28;20037;-71
2021/12/03 21:21:42;;;;;;;4.70;2.50;;;;;;;;;;5030963;28;20112;-70
2021/12/03 21:24:07;;;;;;;5.05;2.42;;;;;;;;;;5034445;28;20044;-70
2021/12/03 21:26:36;;;;;;;4.25;2.30;;;;;;;;;;5032882;28;20036;-70
2021/12/03 21:29:52;;;;;;;8.27;2.78;;;;;;;;;;5034559;28;20566;-69
2021/12/03 21:31:58;;;;;;;5.15;2.40;;;;;;;;;;5028948;28;20091;-68
2021/12/03 21:40:07;;;;;;;4.80;2.25;;;;;;;;;;5014259;28;20588;-69
2021/12/03 21:42:34;;;;;;;3.25;2.20;;;;;;;;;;5031705;28;20124;-68
2021/12/03 21:45:00;;;;;;;14.30;6.70;;;;;;;;;;5038156;28;20045;-69
2021/12/03 21:47:26;;;;;;;8.85;5.82;;;;;;;;;;5039678;28;20040;-69
2021/12/03 21:49:53;;;;;;;48.17;27.73;;;;;;;;;;5029041;28;20022;-70
2021/12/03 21:52:19;;;;;;;66.80;34.28;;;;;;;;;;5027573;28;20432;-67
2021/12/03 21:54:45;;;;;;;36.65;18.83;;;;;;;;;;5028300;28;20018;-68
2021/12/03 21:57:12;;;;;;;76.10;36.47;;;;;;;;;;5037934;28;20094;-69
2021/12/03 21:59:38;;;;;;;101.05;50.17;;;;;;;;;;5036017;28;20073;-68
2021/12/03 22:02:05;;;;;;;62.97;28.80;;;;;;;;;;5029321;28;20020;-69
2021/12/03 22:04:32;;;;;;;50.45;24.20;;;;;;;;;;5019868;28;20130;-69
2021/12/03 22:07:06;;;;;;;35.08;17.83;;;;;;;;;;5033610;28;20033;-69
2021/12/03 22:09:32;;;;;;;30.23;14.05;;;;;;;;;;5034644;28;20033;-69
2021/12/03 22:11:58;;;;;;;22.75;10.23;;;;;;;;;;5035597;28;20021;-68
2021/12/03 22:14:24;;;;;;;22.75;9.90;;;;;;;;;;5035649;28;20048;-70
2021/12/03 22:16:51;;;;;;;22.98;12.75;;;;;;;;;;5034082;28;20036;-68
2021/12/03 22:19:17;;;;;;;16.27;8.45;;;;;;;;;;5034284;28;20500;-70
2021/12/03 22:21:44;;;;;;;16.02;8.20;;;;;;;;;;5036920;28;20034;-69
2021/12/03 22:24:11;;;;;;;60.53;34.80;;;;;;;;;;5027364;28;20125;-68
2021/12/03 22:26:37;;;;;;;36.35;20.42;;;;;;;;;;5031131;28;20043;-68
2021/12/03 22:29:03;;;;;;;20.92;11.73;;;;;;;;;;5030284;28;20691;-69
2021/12/03 22:31:29;;;;;;;32.83;17.70;;;;;;;;;;5033056;28;20470;-68
2021/12/03 22:33:55;;;;;;;52.97;26.98;;;;;;;;;;5031867;28;20026;-68
2021/12/03 22:36:21;;;;;;;40.83;20.80;;;;;;;;;;5034949;28;20032;-68
2021/12/03 22:38:49;;;;;;;16.50;8.93;;;;;;;;;;5036627;28;20407;-68
2021/12/03 22:41:15;;;;;;;18.10;8.82;;;;;;;;;;5034895;28;20508;-68
2021/12/03 22:43:43;;;;;;;13.60;6.32;;;;;;;;;;5037102;28;20504;-68
2021/12/03 22:51:19;;;;;;;5.97;2.80;;;;;;;;;;5036861;28;20112;-69
2021/12/03 22:53:54;;;;;;;2.88;1.60;;;;;;;;;;5030351;28;20168;-69
2021/12/03 22:56:23;;;;;;;4.28;1.77;;;;;;;;;;5035221;28;20107;-69
2021/12/03 22:58:52;;;;;;;4.00;1.90;;;;;;;;;;5033671;28;20076;-69
2021/12/03 23:01:18;;;;;;;6.68;1.70;;;;;;;;;;5025331;28;20427;-70
2021/12/03 23:03:48;;;;;;;2.78;1.63;;;;;;;;;;5032057;28;20115;-70
2021/12/03 23:06:14;;;;;;;3.38;1.45;;;;;;;;;;5024098;28;20041;-71
2021/12/03 23:08:40;;;;;;;3.00;1.50;;;;;;;;;;5031871;28;20308;-69
2021/12/03 23:11:06;;;;;;;2.17;1.40;;;;;;;;;;5033139;28;20498;-69
2021/12/03 23:13:35;;;;;;;3.00;1.65;;;;;;;;;;5032726;28;20036;-69
2021/12/03 23:16:01;;;;;;;4.47;1.30;;;;;;;;;;5032290;28;20025;-70
2021/12/03 23:18:28;;;;;;;2.05;1.20;;;;;;;;;;5034429;28;20512;-69
2021/12/03 23:20:54;;;;;;;2.20;1.20;;;;;;;;;;5034011;28;20105;-69
2021/12/03 23:23:24;;;;;;;2.67;1.20;;;;;;;;;;5032791;28;20057;-70
2021/12/03 23:25:54;;;;;;;2.65;1.20;;;;;;;;;;5035560;28;20384;-69
2021/12/03 23:28:21;;;;;;;1.95;1.30;;;;;;;;;;5033891;28;20030;-69
2021/12/03 23:30:48;;;;;;;3.30;1.20;;;;;;;;;;5034971;28;20033;-68
2021/12/03 23:33:16;;;;;;;2.03;1.20;;;;;;;;;;5035397;28;20022;-68
2021/12/03 23:35:47;;;;;;;2.63;1.15;;;;;;;;;;5032907;28;20067;-68
2021/12/03 23:38:17;;;;;;;3.30;1.30;;;;;;;;;;5033440;28;20037;-69
